createdAt,value
2022-10-25T00:02:16.700Z,11.00
2022-10-25T00:04:45.480Z,11.01
2022-10-25T00:07:13.427Z,11.01
2022-10-25T00:09:41.108Z,10.97
2022-10-25T00:12:10.250Z,10.99
2022-10-25T00:14:37.981Z,10.97
2022-10-25T00:17:05.679Z,10.92
2022-10-25T00:19:33.379Z,10.92
2022-10-25T00:22:01.070Z,10.91
2022-10-25T00:24:29.017Z,10.88
2022-10-25T00:26:56.747Z,10.85
2022-10-25T00:29:25.897Z,10.83
2022-10-25T00:31:53.590Z,10.85
2022-10-25T00:34:21.331Z,10.82
2022-10-25T00:36:49.008Z,10.80
2022-10-25T00:39:16.689Z,10.78
2022-10-25T00:41:44.462Z,10.73
2022-10-25T00:45:01.625Z,10.69
2022-10-25T00:47:46.009Z,10.69
2022-10-25T00:50:45.367Z,10.66
2022-10-25T00:53:16.159Z,10.67
2022-10-25T00:55:49.429Z,10.64
2022-10-25T00:58:21.312Z,10.61
2022-10-25T01:00:50.414Z,10.61
2022-10-25T01:03:21.784Z,10.53
2022-10-25T01:05:50.778Z,10.51
2022-10-25T01:08:20.719Z,10.55
2022-10-25T01:10:49.447Z,10.58
2022-10-25T01:13:17.300Z,10.58
2022-10-25T01:15:56.068Z,10.51
2022-10-25T01:18:33.448Z,10.48
2022-10-25T01:21:33.135Z,10.48
2022-10-25T01:24:17.006Z,10.42
2022-10-25T01:27:05.159Z,10.33
2022-10-25T01:30:10.269Z,10.29
2022-10-25T01:33:02.524Z,10.26
2022-10-25T01:35:33.418Z,10.21
2022-10-25T01:38:09.899Z,10.23
2022-10-25T01:40:46.466Z,10.22
2022-10-25T01:43:24.261Z,10.23
2022-10-25T01:46:00.887Z,10.24
2022-10-25T01:48:35.293Z,10.26
2022-10-25T01:51:11.547Z,10.26
2022-10-25T01:53:47.492Z,10.21
2022-10-25T01:56:22.781Z,10.20
2022-10-25T01:59:06.592Z,10.22
2022-10-25T02:04:27.284Z,10.13
2022-10-25T02:07:01.682Z,10.06
2022-10-25T02:09:37.846Z,10.03
2022-10-25T02:12:09.550Z,10.01
2022-10-25T02:14:40.113Z,10.01
2022-10-25T02:17:13.374Z,10.00
2022-10-25T02:19:46.783Z,10.00
2022-10-25T02:22:16.675Z,9.99
2022-10-25T02:24:47.681Z,10.00
2022-10-25T02:27:16.995Z,10.02
2022-10-25T02:29:46.902Z,10.04
2022-10-25T02:32:14.677Z,10.01
2022-10-25T02:34:43.755Z,10.00
2022-10-25T02:37:11.436Z,10.00
2022-10-25T02:39:39.250Z,10.00
2022-10-25T02:42:07.259Z,10.00
2022-10-25T02:44:34.984Z,9.97
2022-10-25T02:47:02.738Z,9.96
2022-10-25T02:49:30.444Z,9.95
2022-10-25T02:51:59.542Z,9.94
2022-10-25T02:54:27.239Z,9.93
2022-10-25T02:56:54.991Z,9.92
2022-10-25T02:59:22.782Z,9.88
2022-10-25T03:01:50.506Z,9.84
2022-10-25T03:04:18.269Z,9.86
2022-10-25T03:06:45.998Z,9.85
2022-10-25T03:09:15.074Z,9.86
2022-10-25T03:11:42.779Z,9.92
2022-10-25T03:14:10.465Z,9.89
2022-10-25T03:16:38.196Z,9.81
2022-10-25T03:19:05.895Z,9.71
2022-10-25T03:21:36.528Z,9.64
2022-10-25T03:24:07.271Z,9.61
2022-10-25T03:26:36.363Z,9.55
2022-10-25T03:29:04.191Z,9.51
2022-10-25T03:31:31.911Z,9.45
2022-10-25T03:33:59.588Z,9.49
2022-10-25T03:36:27.352Z,9.42
2022-10-25T03:38:55.066Z,9.38
2022-10-25T03:41:22.732Z,9.34
2022-10-25T03:43:51.884Z,9.36
2022-10-25T03:46:19.592Z,9.39
2022-10-25T03:48:47.380Z,9.35
2022-10-25T03:51:15.051Z,9.33
2022-10-25T03:53:42.732Z,9.31
2022-10-25T03:56:10.407Z,9.32
2022-10-25T03:58:38.101Z,9.33
2022-10-25T04:01:09.462Z,9.34
2022-10-25T04:03:37.464Z,9.33
2022-10-25T04:06:05.515Z,9.33
2022-10-25T04:08:33.212Z,9.32
2022-10-25T04:11:00.927Z,9.36
2022-10-25T04:13:29.112Z,9.39
2022-10-25T04:15:56.769Z,9.42
2022-10-25T04:18:25.825Z,9.48
2022-10-25T04:20:53.516Z,9.48
2022-10-25T04:23:21.251Z,9.50
2022-10-25T04:25:48.929Z,9.50
2022-10-25T04:28:16.720Z,9.45
2022-10-25T04:30:44.402Z,9.41
2022-10-25T04:33:12.075Z,9.42
2022-10-25T04:35:41.147Z,9.38
2022-10-25T04:38:08.856Z,9.42
2022-10-25T04:40:36.543Z,9.42
2022-10-25T04:43:04.240Z,9.42
2022-10-25T04:45:31.931Z,9.42
2022-10-25T04:48:00.730Z,9.39
2022-10-25T04:50:28.468Z,9.38
2022-10-25T04:52:57.513Z,9.38
2022-10-25T04:55:25.196Z,9.38
2022-10-25T04:57:52.883Z,9.36
2022-10-25T05:00:20.764Z,9.34
2022-10-25T05:02:48.693Z,9.32
2022-10-25T05:05:16.880Z,9.31
2022-10-25T05:07:44.745Z,9.28
2022-10-25T05:10:14.250Z,9.24
2022-10-25T05:12:41.997Z,9.24
2022-10-25T05:15:10.993Z,9.23
2022-10-25T05:17:38.655Z,9.20
2022-10-25T05:20:07.588Z,9.22
2022-10-25T05:22:35.271Z,9.20
2022-10-25T05:25:02.959Z,9.19
2022-10-25T05:27:32.042Z,9.20
2022-10-25T05:29:59.703Z,9.18
2022-10-25T05:32:27.375Z,9.18
2022-10-25T05:34:55.059Z,9.17
2022-10-25T05:37:22.743Z,9.16
2022-10-25T05:39:50.434Z,9.13
2022-10-25T05:42:18.127Z,9.10
2022-10-25T05:44:47.143Z,9.06
2022-10-25T05:47:14.867Z,9.06
2022-10-25T05:49:42.592Z,9.02
2022-10-25T05:52:11.157Z,8.95
2022-10-25T05:54:38.847Z,8.96
2022-10-25T05:57:06.581Z,8.97
2022-10-25T05:59:34.255Z,8.99
2022-10-25T06:02:03.487Z,9.02
2022-10-25T06:04:31.385Z,9.04
2022-10-25T06:06:59.086Z,9.07
2022-10-25T06:09:26.814Z,9.09
2022-10-25T06:11:54.518Z,9.10
2022-10-25T06:14:22.200Z,9.14
2022-10-25T06:16:49.895Z,9.15
2022-10-25T06:19:18.967Z,9.19
2022-10-25T06:21:46.798Z,9.22
2022-10-25T06:24:14.587Z,9.27
2022-10-25T06:26:42.280Z,9.28
2022-10-25T06:29:10.444Z,9.31
2022-10-25T06:31:38.163Z,9.34
2022-10-25T06:34:05.875Z,9.38
2022-10-25T06:36:34.942Z,9.40
2022-10-25T06:39:05.971Z,9.40
2022-10-25T06:41:36.762Z,9.43
2022-10-25T06:44:06.626Z,9.45
2022-10-25T06:46:57.874Z,9.49
2022-10-25T06:49:24.515Z,9.53
2022-10-25T06:51:53.624Z,9.55
2022-10-25T06:54:21.292Z,9.59
2022-10-25T06:56:48.979Z,9.61
2022-10-25T06:59:17.083Z,9.65
2022-10-25T07:01:44.918Z,9.67
2022-10-25T07:04:12.771Z,9.71
2022-10-25T07:06:40.601Z,9.79
2022-10-25T07:09:12.296Z,9.91
2022-10-25T07:11:40.514Z,10.05
2022-10-25T07:14:11.056Z,10.18
2022-10-25T07:16:38.751Z,10.35
2022-10-25T07:19:06.446Z,10.48
2022-10-25T07:21:34.647Z,10.62
2022-10-25T07:24:02.594Z,10.75
2022-10-25T07:26:33.793Z,10.88
2022-10-25T07:29:03.027Z,10.99
2022-10-25T07:31:32.567Z,11.06
2022-10-25T07:34:02.356Z,11.11
2022-10-25T07:36:30.506Z,11.12
2022-10-25T07:38:58.659Z,11.20
2022-10-25T07:41:27.227Z,11.23
2022-10-25T07:43:56.426Z,11.29
2022-10-25T07:46:24.695Z,11.35
2022-10-25T07:48:53.303Z,11.42
2022-10-25T07:51:21.158Z,11.49
2022-10-25T07:53:49.825Z,11.52
2022-10-25T07:56:22.403Z,11.55
2022-10-25T07:58:51.948Z,11.62
2022-10-25T08:01:23.076Z,11.69
2022-10-25T08:03:51.295Z,11.77
2022-10-25T08:06:19.561Z,11.84
2022-10-25T08:08:47.219Z,11.98
2022-10-25T08:11:14.983Z,12.06
2022-10-25T08:13:42.704Z,12.21
2022-10-25T08:16:10.466Z,12.31
2022-10-25T08:18:39.553Z,12.42
2022-10-25T08:21:07.278Z,12.50
2022-10-25T08:23:35.052Z,12.64
2022-10-25T08:26:03.153Z,12.72
2022-10-25T08:28:31.708Z,12.83
2022-10-25T08:31:00.829Z,12.97
2022-10-25T08:33:29.467Z,13.05
2022-10-25T08:36:00.752Z,13.14
2022-10-25T08:38:28.540Z,13.15
2022-10-25T08:41:03.431Z,13.28
2022-10-25T08:43:51.895Z,13.40
2022-10-25T08:46:24.755Z,13.55
2022-10-25T08:48:58.119Z,13.59
2022-10-25T08:51:30.828Z,13.68
2022-10-25T08:54:04.129Z,13.73
2022-10-25T08:56:33.552Z,13.85
2022-10-25T08:59:03.188Z,13.93
2022-10-25T09:01:37.461Z,14.03
2022-10-25T09:04:05.660Z,14.12
2022-10-25T09:06:41.224Z,14.20
2022-10-25T09:09:23.019Z,14.30
2022-10-25T09:12:03.397Z,14.40
2022-10-25T09:14:43.174Z,14.50
2022-10-25T09:17:19.598Z,14.56
2022-10-25T09:20:01.600Z,14.66
2022-10-25T09:22:31.877Z,14.79
2022-10-25T09:25:03.741Z,14.82
2022-10-25T09:27:37.004Z,14.92
2022-10-25T09:30:08.455Z,14.99
2022-10-25T09:32:40.334Z,14.96
2022-10-25T09:35:16.455Z,15.04
2022-10-25T09:37:50.089Z,15.13
2022-10-25T09:40:22.237Z,15.16
2022-10-25T09:42:54.990Z,15.15
2022-10-25T09:45:27.535Z,15.17
2022-10-25T09:48:05.077Z,15.26
2022-10-25T09:50:38.252Z,15.34
2022-10-25T09:53:12.676Z,15.37
2022-10-25T09:55:51.155Z,15.51
2022-10-25T09:58:22.567Z,15.60
2022-10-25T10:00:51.145Z,15.66
2022-10-25T10:03:20.348Z,15.82
2022-10-25T10:05:55.072Z,15.87
2022-10-25T10:08:25.243Z,15.98
2022-10-25T10:10:54.538Z,16.15
2022-10-25T10:13:29.755Z,16.26
2022-10-25T10:16:00.435Z,16.36
2022-10-25T10:18:31.627Z,16.48
2022-10-25T10:21:03.077Z,16.58
2022-10-25T10:23:36.031Z,16.69
2022-10-25T10:26:10.568Z,16.85
2022-10-25T10:28:38.621Z,16.96
2022-10-25T10:31:08.185Z,17.20
2022-10-25T10:33:36.391Z,17.28
2022-10-25T10:36:25.738Z,17.51
2022-10-25T10:38:55.535Z,17.50
2022-10-25T10:41:28.800Z,17.71
2022-10-25T10:44:12.474Z,17.92
2022-10-25T10:46:45.766Z,18.05
2022-10-25T10:49:15.044Z,18.17
2022-10-25T10:51:45.615Z,18.40
2022-10-25T10:54:23.051Z,18.84
2022-10-25T10:56:58.916Z,19.19
2022-10-25T10:59:40.056Z,19.35
2022-10-25T11:02:17.869Z,19.54
2022-10-25T11:04:49.896Z,19.75
2022-10-25T11:07:28.855Z,20.03
2022-10-25T11:10:23.622Z,20.12
2022-10-25T11:13:12.926Z,20.43
2022-10-25T11:16:18.623Z,20.63
2022-10-25T11:18:54.191Z,20.58
2022-10-25T11:21:42.751Z,20.60
2022-10-25T11:24:22.586Z,20.30
2022-10-25T11:26:58.477Z,20.60
2022-10-25T11:29:47.896Z,20.76
2022-10-25T11:32:54.895Z,20.82
2022-10-25T11:35:46.137Z,20.69
2022-10-25T11:38:21.781Z,20.91
2022-10-25T11:41:02.666Z,21.15
2022-10-25T11:43:51.447Z,21.07
2022-10-25T11:46:31.172Z,21.23
2022-10-25T11:49:22.239Z,21.25
2022-10-25T11:52:15.737Z,21.41
2022-10-25T11:54:48.730Z,21.36
2022-10-25T11:57:26.495Z,21.25
2022-10-25T12:00:03.895Z,21.16
2022-10-25T12:03:02.954Z,21.27
2022-10-25T12:05:40.236Z,21.49
2022-10-25T12:08:20.954Z,21.48
2022-10-25T12:10:54.104Z,21.51
2022-10-25T12:13:27.413Z,21.56
2022-10-25T12:15:58.693Z,21.78
2022-10-25T12:18:29.936Z,21.50
2022-10-25T12:20:58.757Z,20.87
2022-10-25T12:23:28.906Z,20.62
2022-10-25T12:26:01.347Z,20.81
2022-10-25T12:28:33.193Z,21.07
2022-10-25T12:31:09.198Z,20.93
2022-10-25T12:33:41.999Z,21.06
2022-10-25T12:36:24.706Z,21.13
2022-10-25T12:38:53.405Z,21.05
2022-10-25T12:41:24.444Z,21.06
2022-10-25T12:44:13.705Z,21.20
2022-10-25T12:47:02.672Z,21.37
2022-10-25T12:50:02.076Z,21.34
2022-10-25T12:52:34.619Z,21.11
2022-10-25T12:55:26.059Z,21.04
2022-10-25T12:58:05.006Z,21.03
2022-10-25T13:00:39.147Z,20.98
2022-10-25T13:03:51.478Z,21.01
2022-10-25T13:06:29.728Z,21.18
2022-10-25T13:09:04.171Z,21.07
2022-10-25T13:11:41.630Z,20.91
2022-10-25T13:14:26.648Z,20.98
2022-10-25T13:17:14.367Z,20.73
2022-10-25T13:19:59.519Z,20.57
2022-10-25T13:22:37.380Z,20.69
2022-10-25T13:25:18.104Z,20.61
2022-10-25T13:28:19.875Z,20.32
2022-10-25T13:30:47.588Z,20.27
2022-10-25T13:33:33.228Z,20.31
2022-10-25T13:36:04.991Z,20.24
2022-10-25T13:38:39.339Z,20.22
2022-10-25T13:41:19.541Z,20.20
2022-10-25T13:43:58.374Z,20.04
2022-10-25T13:46:30.848Z,19.95
2022-10-25T13:49:01.042Z,20.01
2022-10-25T13:51:33.988Z,19.99
2022-10-25T13:54:08.477Z,19.93
2022-10-25T13:56:50.480Z,19.80
2022-10-25T13:59:38.087Z,19.73
2022-10-25T14:02:17.767Z,19.66
2022-10-25T14:04:45.883Z,19.61
2022-10-25T14:07:50.693Z,19.61
2022-10-25T14:10:27.833Z,19.53
2022-10-25T14:13:02.814Z,19.50
2022-10-25T14:15:39.299Z,19.38
2022-10-25T14:18:09.558Z,19.34
2022-10-25T14:20:38.756Z,19.27
2022-10-25T14:23:14.081Z,19.19
2022-10-25T14:25:43.838Z,19.03
2022-10-25T14:28:16.441Z,18.99
2022-10-25T14:30:45.591Z,18.90
2022-10-25T14:33:25.266Z,18.79
2022-10-25T14:35:54.679Z,18.71
2022-10-25T14:38:26.443Z,18.67
2022-10-25T14:40:56.387Z,18.68
2022-10-25T14:43:31.947Z,18.63
2022-10-25T14:46:12.653Z,18.53
2022-10-25T14:48:41.106Z,18.49
2022-10-25T14:51:14.509Z,18.51
2022-10-25T14:53:51.659Z,18.44
2022-10-25T14:56:27.240Z,18.40
2022-10-25T14:58:56.212Z,18.31
2022-10-25T15:01:24.625Z,18.19
2022-10-25T15:03:55.320Z,18.12
2022-10-25T15:06:26.469Z,18.02
2022-10-25T15:09:29.151Z,17.92
2022-10-25T15:12:04.830Z,17.75
2022-10-25T15:14:32.535Z,17.59
2022-10-25T15:17:03.511Z,17.47
2022-10-25T15:19:31.364Z,17.31
2022-10-25T15:22:07.814Z,17.18
2022-10-25T15:24:46.695Z,17.06
2022-10-25T15:27:27.806Z,16.92
2022-10-25T15:29:55.625Z,16.80
2022-10-25T15:32:26.380Z,16.68
2022-10-25T15:34:56.209Z,16.61
2022-10-25T15:37:25.506Z,16.57
2022-10-25T15:39:57.294Z,16.44
2022-10-25T15:42:27.024Z,16.40
2022-10-25T15:44:55.375Z,16.24
2022-10-25T15:47:32.615Z,16.08
2022-10-25T15:50:02.735Z,15.95
2022-10-25T15:52:30.646Z,15.77
2022-10-25T15:54:59.725Z,15.64
2022-10-25T15:57:28.232Z,15.51
2022-10-25T15:59:55.960Z,15.37
2022-10-25T16:02:27.076Z,15.24
2022-10-25T16:04:54.955Z,15.11
2022-10-25T16:07:23.173Z,14.96
2022-10-25T16:09:50.857Z,14.80
2022-10-25T16:12:22.416Z,14.74
2022-10-25T16:14:52.160Z,14.65
2022-10-25T16:17:20.020Z,14.50
2022-10-25T16:19:47.729Z,14.32
2022-10-25T16:22:15.500Z,14.19
2022-10-25T16:24:43.223Z,14.06
2022-10-25T16:27:12.267Z,13.96
2022-10-25T16:29:41.797Z,13.87
2022-10-25T16:32:09.583Z,13.77
2022-10-25T16:34:38.117Z,13.66
2022-10-25T16:37:09.208Z,13.62
2022-10-25T16:39:39.358Z,13.55
2022-10-25T16:42:28.064Z,13.48
2022-10-25T16:44:57.215Z,13.42
2022-10-25T16:47:24.980Z,13.32
2022-10-25T16:49:52.758Z,13.24
2022-10-25T16:52:20.876Z,13.19
2022-10-25T16:54:48.894Z,13.12
2022-10-25T16:57:17.060Z,13.05
2022-10-25T16:59:44.899Z,13.00
2022-10-25T17:02:18.038Z,13.00
2022-10-25T17:04:46.399Z,12.95
2022-10-25T17:07:14.119Z,12.91
2022-10-25T17:09:41.902Z,12.86
2022-10-25T17:12:10.437Z,12.80
2022-10-25T17:14:38.515Z,12.75
2022-10-25T17:17:06.204Z,12.70
2022-10-25T17:19:35.235Z,12.61
2022-10-25T17:22:03.031Z,12.59
2022-10-25T17:24:32.915Z,12.57
2022-10-25T17:27:00.716Z,12.50
2022-10-25T17:29:28.503Z,12.51
2022-10-25T17:31:56.291Z,12.42
2022-10-25T17:34:24.065Z,12.42
2022-10-25T17:36:53.754Z,12.42
2022-10-25T17:39:21.832Z,12.37
2022-10-25T17:41:49.528Z,12.41
2022-10-25T17:44:17.266Z,12.31
2022-10-25T17:46:45.040Z,12.25
2022-10-25T17:49:16.180Z,12.20
2022-10-25T17:51:46.750Z,12.12
2022-10-25T17:54:17.744Z,11.95
2022-10-25T17:56:45.517Z,11.87
2022-10-25T17:59:13.225Z,11.79
2022-10-25T18:01:41.055Z,11.78
2022-10-25T18:04:09.439Z,11.74
2022-10-25T18:06:37.177Z,11.70
2022-10-25T18:09:05.111Z,11.66
2022-10-25T18:11:34.283Z,11.63
2022-10-25T18:14:02.633Z,11.61
2022-10-25T18:16:34.323Z,11.60
2022-10-25T18:19:04.971Z,11.52
2022-10-25T18:21:33.700Z,11.55
2022-10-25T18:24:02.973Z,11.53
2022-10-25T18:26:30.738Z,11.47
2022-10-25T18:29:00.372Z,11.50
2022-10-25T18:31:28.676Z,11.45
2022-10-25T18:33:58.809Z,11.38
2022-10-25T18:36:28.415Z,11.31
2022-10-25T18:38:56.330Z,11.20
2022-10-25T18:41:26.738Z,11.21
2022-10-25T18:43:56.061Z,11.23
2022-10-25T18:46:29.252Z,11.21
2022-10-25T18:48:57.386Z,11.14
2022-10-25T18:51:28.784Z,11.06
2022-10-25T18:53:57.265Z,10.92
2022-10-25T18:56:25.191Z,10.92
2022-10-25T18:58:53.826Z,10.91
2022-10-25T19:01:27.923Z,10.88
2022-10-25T19:03:58.082Z,10.91
2022-10-25T19:06:26.846Z,10.93
2022-10-25T19:08:54.859Z,10.85
2022-10-25T19:11:23.277Z,10.85
2022-10-25T19:13:54.305Z,10.83
2022-10-25T19:16:22.548Z,10.82
2022-10-25T19:18:51.902Z,10.82
2022-10-25T19:21:20.394Z,10.83
2022-10-25T19:23:49.106Z,10.73
2022-10-25T19:26:18.865Z,10.72
2022-10-25T19:28:47.473Z,10.71
2022-10-25T19:31:18.525Z,10.66
2022-10-25T19:33:48.093Z,10.68
2022-10-25T19:36:18.704Z,10.67
2022-10-25T19:38:48.403Z,10.70
2022-10-25T19:41:19.350Z,10.59
2022-10-25T19:43:49.093Z,10.59
2022-10-25T19:46:18.381Z,10.52
2022-10-25T19:48:46.923Z,10.54
2022-10-25T19:51:17.893Z,10.59
2022-10-25T19:53:46.904Z,10.62
2022-10-25T19:56:16.876Z,10.62
2022-10-25T19:58:45.412Z,10.63
2022-10-25T20:01:15.749Z,10.66
2022-10-25T20:03:45.170Z,10.65
2022-10-25T20:06:18.702Z,10.60
2022-10-25T20:08:51.294Z,10.64
2022-10-25T20:11:19.630Z,10.60
2022-10-25T20:13:47.860Z,10.55
2022-10-25T20:16:15.831Z,10.46
2022-10-25T20:18:43.870Z,10.43
2022-10-25T20:21:13.958Z,10.42
2022-10-25T20:23:42.875Z,10.41
2022-10-25T20:26:14.090Z,10.32
2022-10-25T20:28:42.154Z,10.29
2022-10-25T20:31:09.923Z,10.22
2022-10-25T20:33:38.066Z,10.20
2022-10-25T20:36:08.443Z,10.18
2022-10-25T20:38:37.447Z,10.18
2022-10-25T20:41:06.052Z,10.24
2022-10-25T20:43:35.682Z,10.31
2022-10-25T20:46:03.603Z,10.35
2022-10-25T20:48:31.695Z,10.40
2022-10-25T20:51:04.041Z,10.41
2022-10-25T20:53:35.565Z,10.38
2022-10-25T20:56:03.399Z,10.41
2022-10-25T20:58:31.195Z,10.41
2022-10-25T21:01:00.255Z,10.40
2022-10-25T21:03:30.680Z,10.42
2022-10-25T21:06:00.151Z,10.43
2022-10-25T21:08:28.154Z,10.38
2022-10-25T21:10:57.219Z,10.35
2022-10-25T21:13:26.182Z,10.30
2022-10-25T21:15:54.389Z,10.29
2022-10-25T21:18:28.068Z,10.27
2022-10-25T21:21:01.167Z,10.29
2022-10-25T21:23:29.280Z,10.28
2022-10-25T21:26:00.629Z,10.26
2022-10-25T21:28:32.343Z,10.21
2022-10-25T21:31:01.947Z,10.17
2022-10-25T21:33:31.384Z,10.11
2022-10-25T21:36:03.930Z,10.06
2022-10-25T21:38:32.158Z,10.08
2022-10-25T21:41:08.010Z,10.08
2022-10-25T21:43:35.832Z,10.04
2022-10-25T21:46:06.437Z,10.04
2022-10-25T21:48:36.110Z,10.04
2022-10-25T21:51:04.226Z,10.04
2022-10-25T21:53:32.086Z,10.03
2022-10-25T21:56:08.247Z,10.00
2022-10-25T21:58:35.998Z,9.95
2022-10-25T22:01:07.822Z,9.93
2022-10-25T22:03:37.383Z,9.89
2022-10-25T22:06:07.031Z,9.91
2022-10-25T22:08:34.910Z,9.95
2022-10-25T22:11:04.248Z,9.90
2022-10-25T22:13:31.934Z,9.90
2022-10-25T22:16:01.079Z,9.86
2022-10-25T22:18:29.599Z,9.85
2022-10-25T22:21:01.016Z,9.82
2022-10-25T22:23:31.491Z,9.84
2022-10-25T22:26:02.252Z,9.82
2022-10-25T22:28:30.175Z,9.85
2022-10-25T22:30:58.594Z,9.90
2022-10-25T22:33:26.677Z,9.98
2022-10-25T22:35:54.444Z,10.01
2022-10-25T22:38:23.519Z,10.02
2022-10-25T22:41:01.988Z,10.05
2022-10-25T22:43:30.200Z,10.08
2022-10-25T22:46:00.910Z,10.13
2022-10-25T22:48:31.410Z,10.16
2022-10-25T22:50:59.207Z,10.20
2022-10-25T22:53:29.040Z,10.21
2022-10-25T22:55:58.465Z,10.27
2022-10-25T22:58:27.460Z,10.31
2022-10-25T23:01:00.559Z,10.31
2022-10-25T23:03:28.398Z,10.33
2022-10-25T23:05:59.546Z,10.35
2022-10-25T23:08:29.295Z,10.39
2022-10-25T23:11:01.787Z,10.37
2022-10-25T23:13:30.040Z,10.33
2022-10-25T23:15:57.883Z,10.33
2022-10-25T23:18:25.751Z,10.35
2022-10-25T23:20:55.275Z,10.39
2022-10-25T23:23:23.867Z,10.43
2022-10-25T23:25:53.261Z,10.47
2022-10-25T23:28:22.214Z,10.47
2022-10-25T23:30:49.927Z,10.47
2022-10-25T23:33:17.743Z,10.45
2022-10-25T23:35:45.502Z,10.46
2022-10-25T23:38:14.170Z,10.46
2022-10-25T23:40:47.269Z,10.45
2022-10-25T23:43:16.452Z,10.46
2022-10-25T23:45:44.163Z,10.43
2022-10-25T23:48:11.856Z,10.45
2022-10-25T23:50:39.592Z,10.46
2022-10-25T23:53:08.496Z,10.47
2022-10-25T23:55:38.531Z,10.48
2022-10-25T23:58:06.467Z,10.45
